sensor_id;sensor_type;location;lat;lon;timestamp;P1;durP1;ratioP1;P2;durP2;ratioP2
10643;SDS011;5370;50.132;8.626;2022-08-19T00:01:19;17.23;;;14.13;;
10643;SDS011;5370;50.132;8.626;2022-08-19T00:03:46;15.75;;;14.15;;
10643;SDS011;5370;50.132;8.626;2022-08-19T00:06:11;19.92;;;13.73;;
10643;SDS011;5370;50.132;8.626;2022-08-19T00:08:38;16.25;;;13.80;;
10643;SDS011;5370;50.132;8.626;2022-08-19T00:11:04;15.73;;;13.90;;
10643;SDS011;5370;50.132;8.626;2022-08-19T00:13:30;15.25;;;13.63;;
10643;SDS011;5370;50.132;8.626;2022-08-19T00:15:56;16.08;;;14.15;;
10643;SDS011;5370;50.132;8.626;2022-08-19T00:18:23;16.13;;;14.48;;
10643;SDS011;5370;50.132;8.626;2022-08-19T00:20:49;16.65;;;14.88;;
10643;SDS011;5370;50.132;8.626;2022-08-19T00:23:14;15.77;;;14.07;;
10643;SDS011;5370;50.132;8.626;2022-08-19T00:25:40;16.27;;;14.30;;
10643;SDS011;5370;50.132;8.626;2022-08-19T00:28:06;16.25;;;14.55;;
10643;SDS011;5370;50.132;8.626;2022-08-19T00:30:32;18.08;;;14.32;;
10643;SDS011;5370;50.132;8.626;2022-08-19T00:32:58;18.90;;;14.25;;
10643;SDS011;5370;50.132;8.626;2022-08-19T00:35:24;16.55;;;14.88;;
10643;SDS011;5370;50.132;8.626;2022-08-19T00:37:52;15.80;;;14.10;;
10643;SDS011;5370;50.132;8.626;2022-08-19T00:40:18;15.95;;;14.27;;
10643;SDS011;5370;50.132;8.626;2022-08-19T00:42:45;18.98;;;15.57;;
10643;SDS011;5370;50.132;8.626;2022-08-19T00:45:12;17.98;;;13.73;;
10643;SDS011;5370;50.132;8.626;2022-08-19T00:47:41;19.95;;;14.15;;
10643;SDS011;5370;50.132;8.626;2022-08-19T00:50:09;15.48;;;13.95;;
10643;SDS011;5370;50.132;8.626;2022-08-19T00:52:38;17.73;;;14.05;;
10643;SDS011;5370;50.132;8.626;2022-08-19T00:55:10;15.07;;;13.52;;
10643;SDS011;5370;50.132;8.626;2022-08-19T00:57:40;15.18;;;13.35;;
10643;SDS011;5370;50.132;8.626;2022-08-19T01:00:20;16.92;;;14.07;;
10643;SDS011;5370;50.132;8.626;2022-08-19T01:02:47;14.45;;;12.95;;
10643;SDS011;5370;50.132;8.626;2022-08-19T01:05:18;17.63;;;14.43;;
10643;SDS011;5370;50.132;8.626;2022-08-19T01:07:52;14.98;;;13.38;;
10643;SDS011;5370;50.132;8.626;2022-08-19T01:10:19;14.20;;;12.30;;
10643;SDS011;5370;50.132;8.626;2022-08-19T01:12:48;15.00;;;12.82;;
10643;SDS011;5370;50.132;8.626;2022-08-19T01:15:16;15.10;;;12.52;;
10643;SDS011;5370;50.132;8.626;2022-08-19T01:17:46;14.70;;;11.55;;
10643;SDS011;5370;50.132;8.626;2022-08-19T01:20:13;13.93;;;12.55;;
10643;SDS011;5370;50.132;8.626;2022-08-19T01:25:09;12.32;;;11.20;;
10643;SDS011;5370;50.132;8.626;2022-08-19T01:27:42;13.52;;;12.15;;
10643;SDS011;5370;50.132;8.626;2022-08-19T01:30:11;14.05;;;11.55;;
10643;SDS011;5370;50.132;8.626;2022-08-19T01:32:38;14.45;;;11.35;;
10643;SDS011;5370;50.132;8.626;2022-08-19T01:35:04;13.80;;;11.98;;
10643;SDS011;5370;50.132;8.626;2022-08-19T01:37:41;15.63;;;12.27;;
10643;SDS011;5370;50.132;8.626;2022-08-19T01:40:11;15.18;;;11.27;;
10643;SDS011;5370;50.132;8.626;2022-08-19T01:42:37;14.40;;;11.93;;
10643;SDS011;5370;50.132;8.626;2022-08-19T01:45:03;15.88;;;11.80;;
10643;SDS011;5370;50.132;8.626;2022-08-19T01:47:29;12.90;;;11.25;;
10643;SDS011;5370;50.132;8.626;2022-08-19T01:49:55;13.63;;;10.35;;
10643;SDS011;5370;50.132;8.626;2022-08-19T01:52:22;13.95;;;12.10;;
10643;SDS011;5370;50.132;8.626;2022-08-19T01:54:48;14.80;;;11.98;;
10643;SDS011;5370;50.132;8.626;2022-08-19T01:57:14;15.73;;;11.00;;
10643;SDS011;5370;50.132;8.626;2022-08-19T01:59:41;13.00;;;11.52;;
10643;SDS011;5370;50.132;8.626;2022-08-19T02:02:07;12.90;;;11.50;;
10643;SDS011;5370;50.132;8.626;2022-08-19T02:04:33;12.57;;;10.85;;
10643;SDS011;5370;50.132;8.626;2022-08-19T02:06:59;12.32;;;11.07;;
10643;SDS011;5370;50.132;8.626;2022-08-19T02:09:25;15.90;;;11.25;;
10643;SDS011;5370;50.132;8.626;2022-08-19T02:11:50;12.32;;;10.18;;
10643;SDS011;5370;50.132;8.626;2022-08-19T02:14:16;12.98;;;11.43;;
10643;SDS011;5370;50.132;8.626;2022-08-19T02:16:41;14.82;;;11.43;;
10643;SDS011;5370;50.132;8.626;2022-08-19T02:19:07;11.05;;;9.90;;
10643;SDS011;5370;50.132;8.626;2022-08-19T02:21:33;13.73;;;10.80;;
10643;SDS011;5370;50.132;8.626;2022-08-19T02:23:59;12.90;;;10.73;;
10643;SDS011;5370;50.132;8.626;2022-08-19T02:26:25;13.82;;;11.52;;
10643;SDS011;5370;50.132;8.626;2022-08-19T02:28:53;11.70;;;10.43;;
10643;SDS011;5370;50.132;8.626;2022-08-19T02:31:20;14.30;;;9.95;;
10643;SDS011;5370;50.132;8.626;2022-08-19T02:33:48;13.90;;;10.93;;
10643;SDS011;5370;50.132;8.626;2022-08-19T02:36:15;11.82;;;10.60;;
10643;SDS011;5370;50.132;8.626;2022-08-19T02:38:42;13.43;;;11.77;;
10643;SDS011;5370;50.132;8.626;2022-08-19T02:41:13;11.43;;;10.27;;
10643;SDS011;5370;50.132;8.626;2022-08-19T02:43:41;13.93;;;10.90;;
10643;SDS011;5370;50.132;8.626;2022-08-19T02:48:50;14.23;;;10.98;;
10643;SDS011;5370;50.132;8.626;2022-08-19T02:51:21;12.40;;;10.00;;
10643;SDS011;5370;50.132;8.626;2022-08-19T02:53:49;13.60;;;10.30;;
10643;SDS011;5370;50.132;8.626;2022-08-19T02:56:15;11.25;;;10.07;;
10643;SDS011;5370;50.132;8.626;2022-08-19T02:58:41;11.10;;;10.00;;
10643;SDS011;5370;50.132;8.626;2022-08-19T03:01:08;14.95;;;10.25;;
10643;SDS011;5370;50.132;8.626;2022-08-19T03:03:35;14.23;;;10.73;;
10643;SDS011;5370;50.132;8.626;2022-08-19T03:06:11;11.23;;;9.95;;
10643;SDS011;5370;50.132;8.626;2022-08-19T03:08:39;12.52;;;9.82;;
10643;SDS011;5370;50.132;8.626;2022-08-19T03:11:10;13.25;;;9.90;;
10643;SDS011;5370;50.132;8.626;2022-08-19T03:13:38;11.27;;;9.85;;
10643;SDS011;5370;50.132;8.626;2022-08-19T03:16:04;14.43;;;10.70;;
10643;SDS011;5370;50.132;8.626;2022-08-19T03:18:30;11.85;;;10.20;;
10643;SDS011;5370;50.132;8.626;2022-08-19T03:20:56;11.77;;;10.57;;
10643;SDS011;5370;50.132;8.626;2022-08-19T03:23:22;11.00;;;9.95;;
10643;SDS011;5370;50.132;8.626;2022-08-19T03:25:49;15.55;;;11.88;;
10643;SDS011;5370;50.132;8.626;2022-08-19T03:28:16;13.02;;;11.43;;
10643;SDS011;5370;50.132;8.626;2022-08-19T03:30:42;12.50;;;11.13;;
10643;SDS011;5370;50.132;8.626;2022-08-19T03:33:21;14.32;;;11.00;;
10643;SDS011;5370;50.132;8.626;2022-08-19T03:35:46;13.57;;;11.18;;
10643;SDS011;5370;50.132;8.626;2022-08-19T03:38:13;11.93;;;10.73;;
10643;SDS011;5370;50.132;8.626;2022-08-19T03:40:38;13.57;;;11.27;;
10643;SDS011;5370;50.132;8.626;2022-08-19T03:43:04;13.93;;;11.07;;
10643;SDS011;5370;50.132;8.626;2022-08-19T03:45:30;14.88;;;12.02;;
10643;SDS011;5370;50.132;8.626;2022-08-19T03:47:56;15.10;;;11.43;;
10643;SDS011;5370;50.132;8.626;2022-08-19T03:50:22;15.85;;;12.10;;
10643;SDS011;5370;50.132;8.626;2022-08-19T03:52:51;13.10;;;11.73;;
10643;SDS011;5370;50.132;8.626;2022-08-19T03:55:17;12.52;;;11.25;;
10643;SDS011;5370;50.132;8.626;2022-08-19T03:57:43;14.88;;;11.65;;
10643;SDS011;5370;50.132;8.626;2022-08-19T04:00:10;11.88;;;10.57;;
10643;SDS011;5370;50.132;8.626;2022-08-19T04:02:36;13.20;;;11.85;;
10643;SDS011;5370;50.132;8.626;2022-08-19T04:05:02;13.13;;;11.38;;
10643;SDS011;5370;50.132;8.626;2022-08-19T04:07:27;14.25;;;10.50;;
10643;SDS011;5370;50.132;8.626;2022-08-19T04:09:53;12.38;;;10.32;;
10643;SDS011;5370;50.132;8.626;2022-08-19T04:12:19;13.75;;;11.68;;
10643;SDS011;5370;50.132;8.626;2022-08-19T04:14:45;13.02;;;11.35;;
10643;SDS011;5370;50.132;8.626;2022-08-19T04:17:11;12.90;;;10.02;;
10643;SDS011;5370;50.132;8.626;2022-08-19T04:19:37;12.38;;;11.07;;
10643;SDS011;5370;50.132;8.626;2022-08-19T04:22:03;11.77;;;10.35;;
10643;SDS011;5370;50.132;8.626;2022-08-19T04:24:29;14.32;;;11.20;;
10643;SDS011;5370;50.132;8.626;2022-08-19T04:26:55;11.68;;;10.20;;
10643;SDS011;5370;50.132;8.626;2022-08-19T04:29:23;11.40;;;10.23;;
10643;SDS011;5370;50.132;8.626;2022-08-19T04:31:50;11.55;;;9.70;;
10643;SDS011;5370;50.132;8.626;2022-08-19T04:34:17;12.30;;;10.25;;
10643;SDS011;5370;50.132;8.626;2022-08-19T04:36:47;15.80;;;10.15;;
10643;SDS011;5370;50.132;8.626;2022-08-19T04:39:16;11.48;;;10.30;;
10643;SDS011;5370;50.132;8.626;2022-08-19T04:41:43;12.68;;;10.77;;
10643;SDS011;5370;50.132;8.626;2022-08-19T04:44:28;11.85;;;10.63;;
10643;SDS011;5370;50.132;8.626;2022-08-19T04:46:58;11.50;;;9.70;;
10643;SDS011;5370;50.132;8.626;2022-08-19T04:49:25;12.23;;;10.18;;
10643;SDS011;5370;50.132;8.626;2022-08-19T04:51:51;12.50;;;10.07;;
10643;SDS011;5370;50.132;8.626;2022-08-19T04:54:19;14.10;;;10.43;;
10643;SDS011;5370;50.132;8.626;2022-08-19T04:56:49;12.05;;;9.55;;
10643;SDS011;5370;50.132;8.626;2022-08-19T04:59:17;9.88;;;8.85;;
10643;SDS011;5370;50.132;8.626;2022-08-19T05:01:44;10.48;;;9.38;;
10643;SDS011;5370;50.132;8.626;2022-08-19T05:04:14;12.70;;;9.52;;
10643;SDS011;5370;50.132;8.626;2022-08-19T05:06:40;12.20;;;9.07;;
10643;SDS011;5370;50.132;8.626;2022-08-19T05:09:06;12.95;;;8.60;;
10643;SDS011;5370;50.132;8.626;2022-08-19T05:11:32;9.48;;;8.48;;
10643;SDS011;5370;50.132;8.626;2022-08-19T05:14:04;16.25;;;8.68;;
10643;SDS011;5370;50.132;8.626;2022-08-19T05:16:30;11.60;;;9.10;;
10643;SDS011;5370;50.132;8.626;2022-08-19T05:18:56;11.75;;;8.23;;
10643;SDS011;5370;50.132;8.626;2022-08-19T05:21:41;10.18;;;8.50;;
10643;SDS011;5370;50.132;8.626;2022-08-19T05:24:26;9.55;;;8.55;;
10643;SDS011;5370;50.132;8.626;2022-08-19T05:26:53;8.93;;;7.95;;
10643;SDS011;5370;50.132;8.626;2022-08-19T05:29:21;12.85;;;8.43;;
10643;SDS011;5370;50.132;8.626;2022-08-19T05:31:48;15.18;;;8.73;;
10643;SDS011;5370;50.132;8.626;2022-08-19T05:34:15;15.93;;;9.32;;
10643;SDS011;5370;50.132;8.626;2022-08-19T05:36:42;15.60;;;8.60;;
10643;SDS011;5370;50.132;8.626;2022-08-19T05:39:11;12.43;;;7.85;;
10643;SDS011;5370;50.132;8.626;2022-08-19T05:41:45;18.73;;;7.90;;
10643;SDS011;5370;50.132;8.626;2022-08-19T05:44:13;15.68;;;6.80;;
10643;SDS011;5370;50.132;8.626;2022-08-19T05:46:40;12.07;;;6.97;;
10643;SDS011;5370;50.132;8.626;2022-08-19T05:49:09;9.70;;;6.75;;
10643;SDS011;5370;50.132;8.626;2022-08-19T05:51:35;9.65;;;7.38;;
10643;SDS011;5370;50.132;8.626;2022-08-19T05:54:03;9.13;;;6.68;;
10643;SDS011;5370;50.132;8.626;2022-08-19T05:56:30;11.95;;;6.30;;
10643;SDS011;5370;50.132;8.626;2022-08-19T05:58:57;8.88;;;5.93;;
10643;SDS011;5370;50.132;8.626;2022-08-19T06:01:24;6.78;;;6.03;;
10643;SDS011;5370;50.132;8.626;2022-08-19T06:03:50;7.82;;;6.25;;
10643;SDS011;5370;50.132;8.626;2022-08-19T06:06:16;7.65;;;5.63;;
10643;SDS011;5370;50.132;8.626;2022-08-19T06:08:43;5.70;;;5.10;;
10643;SDS011;5370;50.132;8.626;2022-08-19T06:11:31;5.63;;;5.13;;
10643;SDS011;5370;50.132;8.626;2022-08-19T06:14:01;5.38;;;4.88;;
10643;SDS011;5370;50.132;8.626;2022-08-19T06:16:30;6.05;;;5.18;;
10643;SDS011;5370;50.132;8.626;2022-08-19T06:18:57;6.47;;;4.57;;
10643;SDS011;5370;50.132;8.626;2022-08-19T06:21:25;5.68;;;4.53;;
10643;SDS011;5370;50.132;8.626;2022-08-19T06:23:53;5.32;;;4.07;;
10643;SDS011;5370;50.132;8.626;2022-08-19T06:26:20;5.32;;;4.45;;
10643;SDS011;5370;50.132;8.626;2022-08-19T06:28:47;5.88;;;5.35;;
10643;SDS011;5370;50.132;8.626;2022-08-19T06:31:13;5.07;;;4.57;;
10643;SDS011;5370;50.132;8.626;2022-08-19T06:33:41;4.93;;;4.40;;
10643;SDS011;5370;50.132;8.626;2022-08-19T06:36:07;6.88;;;4.43;;
10643;SDS011;5370;50.132;8.626;2022-08-19T06:38:41;5.63;;;4.50;;
10643;SDS011;5370;50.132;8.626;2022-08-19T06:41:06;4.90;;;4.40;;
10643;SDS011;5370;50.132;8.626;2022-08-19T06:43:33;5.82;;;4.28;;
10643;SDS011;5370;50.132;8.626;2022-08-19T06:45:58;5.50;;;4.43;;
10643;SDS011;5370;50.132;8.626;2022-08-19T06:48:24;5.28;;;3.75;;
10643;SDS011;5370;50.132;8.626;2022-08-19T06:50:49;7.00;;;4.50;;
10643;SDS011;5370;50.132;8.626;2022-08-19T06:53:16;4.53;;;3.95;;
10643;SDS011;5370;50.132;8.626;2022-08-19T06:55:44;4.03;;;3.72;;
10643;SDS011;5370;50.132;8.626;2022-08-19T06:58:10;5.20;;;3.67;;
10643;SDS011;5370;50.132;8.626;2022-08-19T07:00:35;6.45;;;4.28;;
10643;SDS011;5370;50.132;8.626;2022-08-19T07:03:02;5.47;;;4.40;;
10643;SDS011;5370;50.132;8.626;2022-08-19T07:05:28;4.80;;;3.45;;
10643;SDS011;5370;50.132;8.626;2022-08-19T07:07:53;5.28;;;3.53;;
10643;SDS011;5370;50.132;8.626;2022-08-19T07:10:19;6.32;;;4.20;;
10643;SDS011;5370;50.132;8.626;2022-08-19T07:12:44;3.92;;;3.53;;
10643;SDS011;5370;50.132;8.626;2022-08-19T07:15:11;5.15;;;3.47;;
10643;SDS011;5370;50.132;8.626;2022-08-19T07:17:37;3.38;;;3.08;;
10643;SDS011;5370;50.132;8.626;2022-08-19T07:20:04;4.18;;;3.60;;
10643;SDS011;5370;50.132;8.626;2022-08-19T07:22:32;3.22;;;2.63;;
10643;SDS011;5370;50.132;8.626;2022-08-19T07:24:59;4.13;;;3.40;;
10643;SDS011;5370;50.132;8.626;2022-08-19T07:27:25;4.10;;;3.67;;
10643;SDS011;5370;50.132;8.626;2022-08-19T07:29:53;4.40;;;3.00;;
10643;SDS011;5370;50.132;8.626;2022-08-19T07:32:19;5.10;;;3.22;;
10643;SDS011;5370;50.132;8.626;2022-08-19T07:34:44;3.67;;;3.15;;
10643;SDS011;5370;50.132;8.626;2022-08-19T07:37:10;3.08;;;2.72;;
10643;SDS011;5370;50.132;8.626;2022-08-19T07:39:36;8.02;;;3.10;;
10643;SDS011;5370;50.132;8.626;2022-08-19T07:42:04;3.97;;;3.58;;
10643;SDS011;5370;50.132;8.626;2022-08-19T07:44:33;2.92;;;2.67;;
10643;SDS011;5370;50.132;8.626;2022-08-19T07:47:00;4.43;;;3.42;;
10643;SDS011;5370;50.132;8.626;2022-08-19T07:49:26;3.92;;;3.53;;
10643;SDS011;5370;50.132;8.626;2022-08-19T07:51:53;5.05;;;3.53;;
10643;SDS011;5370;50.132;8.626;2022-08-19T07:54:22;6.32;;;3.97;;
10643;SDS011;5370;50.132;8.626;2022-08-19T07:56:48;4.43;;;3.90;;
10643;SDS011;5370;50.132;8.626;2022-08-19T07:59:15;4.93;;;4.05;;
10643;SDS011;5370;50.132;8.626;2022-08-19T08:01:43;5.80;;;4.72;;
10643;SDS011;5370;50.132;8.626;2022-08-19T08:04:09;5.22;;;4.05;;
10643;SDS011;5370;50.132;8.626;2022-08-19T08:06:54;6.47;;;4.35;;
10643;SDS011;5370;50.132;8.626;2022-08-19T08:09:39;6.15;;;4.22;;
10643;SDS011;5370;50.132;8.626;2022-08-19T08:12:09;6.53;;;4.47;;
10643;SDS011;5370;50.132;8.626;2022-08-19T08:14:40;4.45;;;4.00;;
10643;SDS011;5370;50.132;8.626;2022-08-19T08:17:09;4.43;;;3.75;;
10643;SDS011;5370;50.132;8.626;2022-08-19T08:19:35;4.05;;;3.75;;
10643;SDS011;5370;50.132;8.626;2022-08-19T08:22:01;5.95;;;4.28;;
10643;SDS011;5370;50.132;8.626;2022-08-19T08:24:28;4.97;;;4.55;;
10643;SDS011;5370;50.132;8.626;2022-08-19T08:26:56;8.30;;;4.68;;
10643;SDS011;5370;50.132;8.626;2022-08-19T08:29:23;4.97;;;4.15;;
10643;SDS011;5370;50.132;8.626;2022-08-19T08:31:50;4.13;;;3.50;;
10643;SDS011;5370;50.132;8.626;2022-08-19T08:34:16;5.35;;;4.53;;
10643;SDS011;5370;50.132;8.626;2022-08-19T08:36:43;4.70;;;4.30;;
10643;SDS011;5370;50.132;8.626;2022-08-19T08:39:15;5.50;;;4.10;;
10643;SDS011;5370;50.132;8.626;2022-08-19T08:42:44;6.55;;;4.22;;
10643;SDS011;5370;50.132;8.626;2022-08-19T08:44:53;4.30;;;3.97;;
10643;SDS011;5370;50.132;8.626;2022-08-19T08:47:23;4.13;;;3.58;;
10643;SDS011;5370;50.132;8.626;2022-08-19T08:49:53;9.60;;;4.28;;
10643;SDS011;5370;50.132;8.626;2022-08-19T08:52:25;9.07;;;4.95;;
10643;SDS011;5370;50.132;8.626;2022-08-19T08:54:54;6.13;;;3.58;;
10643;SDS011;5370;50.132;8.626;2022-08-19T08:57:26;4.97;;;3.92;;
10643;SDS011;5370;50.132;8.626;2022-08-19T09:00:12;4.35;;;3.92;;
10643;SDS011;5370;50.132;8.626;2022-08-19T09:02:42;6.72;;;3.58;;
10643;SDS011;5370;50.132;8.626;2022-08-19T09:05:08;7.40;;;4.25;;
10643;SDS011;5370;50.132;8.626;2022-08-19T09:10:28;5.05;;;4.10;;
10643;SDS011;5370;50.132;8.626;2022-08-19T09:15:34;4.90;;;4.18;;
10643;SDS011;5370;50.132;8.626;2022-08-19T09:18:04;5.20;;;3.28;;
10643;SDS011;5370;50.132;8.626;2022-08-19T09:20:31;4.82;;;3.60;;
10643;SDS011;5370;50.132;8.626;2022-08-19T09:22:57;4.05;;;3.55;;
10643;SDS011;5370;50.132;8.626;2022-08-19T09:25:23;7.30;;;3.72;;
10643;SDS011;5370;50.132;8.626;2022-08-19T09:27:50;4.38;;;3.97;;
10643;SDS011;5370;50.132;8.626;2022-08-19T09:30:20;5.22;;;4.10;;
10643;SDS011;5370;50.132;8.626;2022-08-19T09:32:47;4.88;;;3.72;;
10643;SDS011;5370;50.132;8.626;2022-08-19T09:35:13;4.47;;;3.88;;
10643;SDS011;5370;50.132;8.626;2022-08-19T09:37:40;10.68;;;4.10;;
10643;SDS011;5370;50.132;8.626;2022-08-19T09:40:07;5.18;;;4.07;;
10643;SDS011;5370;50.132;8.626;2022-08-19T09:42:33;4.70;;;4.25;;
10643;SDS011;5370;50.132;8.626;2022-08-19T09:44:59;6.30;;;4.00;;
10643;SDS011;5370;50.132;8.626;2022-08-19T09:47:25;4.80;;;4.38;;
10643;SDS011;5370;50.132;8.626;2022-08-19T09:49:50;8.27;;;4.28;;
10643;SDS011;5370;50.132;8.626;2022-08-19T09:52:16;7.30;;;4.72;;
10643;SDS011;5370;50.132;8.626;2022-08-19T09:54:43;5.43;;;4.35;;
10643;SDS011;5370;50.132;8.626;2022-08-19T09:57:08;5.13;;;4.07;;
10643;SDS011;5370;50.132;8.626;2022-08-19T09:59:34;7.80;;;4.72;;
10643;SDS011;5370;50.132;8.626;2022-08-19T10:02:00;4.68;;;4.28;;
10643;SDS011;5370;50.132;8.626;2022-08-19T10:04:26;7.22;;;4.50;;
10643;SDS011;5370;50.132;8.626;2022-08-19T10:07:11;5.38;;;4.88;;
10643;SDS011;5370;50.132;8.626;2022-08-19T10:09:37;5.30;;;4.68;;
10643;SDS011;5370;50.132;8.626;2022-08-19T10:12:03;4.78;;;4.38;;
10643;SDS011;5370;50.132;8.626;2022-08-19T10:14:30;5.85;;;5.15;;
10643;SDS011;5370;50.132;8.626;2022-08-19T10:16:56;7.25;;;5.55;;
10643;SDS011;5370;50.132;8.626;2022-08-19T10:19:22;7.47;;;5.00;;
10643;SDS011;5370;50.132;8.626;2022-08-19T10:21:47;6.82;;;5.63;;
10643;SDS011;5370;50.132;8.626;2022-08-19T10:24:13;7.28;;;5.72;;
10643;SDS011;5370;50.132;8.626;2022-08-19T10:26:39;8.05;;;6.10;;
10643;SDS011;5370;50.132;8.626;2022-08-19T10:29:12;5.78;;;5.18;;
10643;SDS011;5370;50.132;8.626;2022-08-19T10:31:40;8.23;;;5.82;;
10643;SDS011;5370;50.132;8.626;2022-08-19T10:34:06;6.97;;;6.28;;
10643;SDS011;5370;50.132;8.626;2022-08-19T10:36:33;11.73;;;6.57;;
10643;SDS011;5370;50.132;8.626;2022-08-19T10:39:03;6.43;;;5.93;;
10643;SDS011;5370;50.132;8.626;2022-08-19T10:41:32;7.35;;;6.65;;
10643;SDS011;5370;50.132;8.626;2022-08-19T10:44:01;6.90;;;6.30;;
10643;SDS011;5370;50.132;8.626;2022-08-19T10:46:30;6.60;;;5.75;;
10643;SDS011;5370;50.132;8.626;2022-08-19T10:48:57;7.63;;;7.00;;
10643;SDS011;5370;50.132;8.626;2022-08-19T10:51:24;7.68;;;6.88;;
10643;SDS011;5370;50.132;8.626;2022-08-19T10:54:08;7.63;;;7.03;;
10643;SDS011;5370;50.132;8.626;2022-08-19T10:56:34;11.98;;;7.97;;
10643;SDS011;5370;50.132;8.626;2022-08-19T10:59:19;9.25;;;7.50;;
10643;SDS011;5370;50.132;8.626;2022-08-19T11:01:52;7.80;;;7.00;;
10643;SDS011;5370;50.132;8.626;2022-08-19T11:04:18;9.43;;;7.97;;
10643;SDS011;5370;50.132;8.626;2022-08-19T11:06:46;9.20;;;8.15;;
10643;SDS011;5370;50.132;8.626;2022-08-19T11:09:16;8.93;;;7.32;;
10643;SDS011;5370;50.132;8.626;2022-08-19T11:11:43;9.10;;;8.00;;
10643;SDS011;5370;50.132;8.626;2022-08-19T11:14:10;9.73;;;8.75;;
10643;SDS011;5370;50.132;8.626;2022-08-19T11:16:37;8.98;;;8.13;;
10643;SDS011;5370;50.132;8.626;2022-08-19T11:19:07;9.05;;;7.13;;
10643;SDS011;5370;50.132;8.626;2022-08-19T11:21:35;8.95;;;8.05;;
10643;SDS011;5370;50.132;8.626;2022-08-19T11:24:05;9.90;;;7.95;;
10643;SDS011;5370;50.132;8.626;2022-08-19T11:26:33;9.15;;;8.27;;
10643;SDS011;5370;50.132;8.626;2022-08-19T11:28:59;8.73;;;7.93;;
10643;SDS011;5370;50.132;8.626;2022-08-19T11:31:28;9.75;;;8.88;;
10643;SDS011;5370;50.132;8.626;2022-08-19T11:33:56;9.25;;;8.35;;
10643;SDS011;5370;50.132;8.626;2022-08-19T11:36:24;8.25;;;7.45;;
10643;SDS011;5370;50.132;8.626;2022-08-19T11:38:51;8.85;;;6.43;;
10643;SDS011;5370;50.132;8.626;2022-08-19T11:41:17;7.78;;;7.18;;
10643;SDS011;5370;50.132;8.626;2022-08-19T11:43:47;9.23;;;8.13;;
10643;SDS011;5370;50.132;8.626;2022-08-19T11:46:14;8.85;;;8.05;;
10643;SDS011;5370;50.132;8.626;2022-08-19T11:48:40;8.35;;;7.55;;
10643;SDS011;5370;50.132;8.626;2022-08-19T11:51:08;8.95;;;8.15;;
10643;SDS011;5370;50.132;8.626;2022-08-19T11:53:36;9.30;;;7.80;;
10643;SDS011;5370;50.132;8.626;2022-08-19T11:56:02;8.55;;;7.70;;
10643;SDS011;5370;50.132;8.626;2022-08-19T11:58:28;9.93;;;7.10;;
10643;SDS011;5370;50.132;8.626;2022-08-19T12:00:54;8.27;;;7.43;;
10643;SDS011;5370;50.132;8.626;2022-08-19T12:03:20;7.85;;;7.15;;
10643;SDS011;5370;50.132;8.626;2022-08-19T12:05:46;8.23;;;7.53;;
10643;SDS011;5370;50.132;8.626;2022-08-19T12:08:12;7.68;;;6.97;;
10643;SDS011;5370;50.132;8.626;2022-08-19T12:10:38;7.75;;;6.72;;
10643;SDS011;5370;50.132;8.626;2022-08-19T12:13:07;7.90;;;7.30;;
10643;SDS011;5370;50.132;8.626;2022-08-19T12:15:37;8.00;;;7.20;;
10643;SDS011;5370;50.132;8.626;2022-08-19T12:18:06;7.20;;;6.60;;
10643;SDS011;5370;50.132;8.626;2022-08-19T12:20:37;6.95;;;6.25;;
10643;SDS011;5370;50.132;8.626;2022-08-19T12:23:04;7.18;;;6.50;;
10643;SDS011;5370;50.132;8.626;2022-08-19T12:25:33;6.65;;;6.05;;
10643;SDS011;5370;50.132;8.626;2022-08-19T12:27:59;7.32;;;6.68;;
10643;SDS011;5370;50.132;8.626;2022-08-19T12:30:25;7.50;;;6.85;;
10643;SDS011;5370;50.132;8.626;2022-08-19T12:32:51;7.68;;;6.97;;
10643;SDS011;5370;50.132;8.626;2022-08-19T12:35:16;6.97;;;6.43;;
10643;SDS011;5370;50.132;8.626;2022-08-19T12:37:44;6.80;;;6.15;;
10643;SDS011;5370;50.132;8.626;2022-08-19T12:40:11;8.95;;;6.68;;
10643;SDS011;5370;50.132;8.626;2022-08-19T12:42:38;5.85;;;5.35;;
10643;SDS011;5370;50.132;8.626;2022-08-19T12:45:10;5.75;;;5.25;;
10643;SDS011;5370;50.132;8.626;2022-08-19T12:47:37;6.20;;;5.70;;
10643;SDS011;5370;50.132;8.626;2022-08-19T12:50:03;6.75;;;5.57;;
10643;SDS011;5370;50.132;8.626;2022-08-19T12:52:31;6.32;;;5.78;;
10643;SDS011;5370;50.132;8.626;2022-08-19T12:54:56;6.28;;;5.78;;
10643;SDS011;5370;50.132;8.626;2022-08-19T12:57:23;7.82;;;5.90;;
10643;SDS011;5370;50.132;8.626;2022-08-19T12:59:54;6.22;;;5.68;;
10643;SDS011;5370;50.132;8.626;2022-08-19T13:02:20;6.05;;;5.45;;
10643;SDS011;5370;50.132;8.626;2022-08-19T13:04:46;5.10;;;4.60;;
10643;SDS011;5370;50.132;8.626;2022-08-19T13:07:12;5.88;;;5.07;;
10643;SDS011;5370;50.132;8.626;2022-08-19T13:09:37;7.57;;;5.30;;
10643;SDS011;5370;50.132;8.626;2022-08-19T13:12:06;5.10;;;4.70;;
10643;SDS011;5370;50.132;8.626;2022-08-19T13:14:33;4.68;;;4.25;;
10643;SDS011;5370;50.132;8.626;2022-08-19T13:17:00;4.80;;;4.40;;
10643;SDS011;5370;50.132;8.626;2022-08-19T13:19:25;5.13;;;4.43;;
10643;SDS011;5370;50.132;8.626;2022-08-19T13:21:51;7.13;;;4.55;;
10643;SDS011;5370;50.132;8.626;2022-08-19T13:24:18;6.03;;;4.70;;
10643;SDS011;5370;50.132;8.626;2022-08-19T13:26:44;4.35;;;4.05;;
10643;SDS011;5370;50.132;8.626;2022-08-19T13:29:10;4.07;;;3.75;;
10643;SDS011;5370;50.132;8.626;2022-08-19T13:31:54;4.65;;;4.05;;
10643;SDS011;5370;50.132;8.626;2022-08-19T13:34:38;3.92;;;3.70;;
10643;SDS011;5370;50.132;8.626;2022-08-19T13:37:04;4.13;;;3.80;;
10643;SDS011;5370;50.132;8.626;2022-08-19T13:39:31;4.22;;;3.75;;
10643;SDS011;5370;50.132;8.626;2022-08-19T13:41:58;5.85;;;4.40;;
10643;SDS011;5370;50.132;8.626;2022-08-19T13:44:25;4.63;;;4.22;;
10643;SDS011;5370;50.132;8.626;2022-08-19T13:46:54;5.70;;;3.70;;
10643;SDS011;5370;50.132;8.626;2022-08-19T13:49:24;6.32;;;4.22;;
10643;SDS011;5370;50.132;8.626;2022-08-19T13:51:49;3.88;;;3.55;;
10643;SDS011;5370;50.132;8.626;2022-08-19T13:54:15;5.70;;;3.65;;
10643;SDS011;5370;50.132;8.626;2022-08-19T13:56:41;3.50;;;3.20;;
10643;SDS011;5370;50.132;8.626;2022-08-19T13:59:09;8.95;;;3.05;;
10643;SDS011;5370;50.132;8.626;2022-08-19T14:01:35;5.40;;;3.78;;
10643;SDS011;5370;50.132;8.626;2022-08-19T14:04:02;8.10;;;3.60;;
10643;SDS011;5370;50.132;8.626;2022-08-19T14:06:28;3.85;;;3.50;;
10643;SDS011;5370;50.132;8.626;2022-08-19T14:08:54;4.72;;;3.50;;
10643;SDS011;5370;50.132;8.626;2022-08-19T14:11:19;6.05;;;3.53;;
10643;SDS011;5370;50.132;8.626;2022-08-19T14:13:45;5.97;;;3.78;;
10643;SDS011;5370;50.132;8.626;2022-08-19T14:16:11;5.32;;;3.70;;
10643;SDS011;5370;50.132;8.626;2022-08-19T14:18:38;5.40;;;3.22;;
10643;SDS011;5370;50.132;8.626;2022-08-19T14:21:05;3.50;;;3.17;;
10643;SDS011;5370;50.132;8.626;2022-08-19T14:23:32;4.00;;;3.58;;
10643;SDS011;5370;50.132;8.626;2022-08-19T14:26:08;5.32;;;3.30;;
10643;SDS011;5370;50.132;8.626;2022-08-19T14:28:39;4.82;;;3.35;;
10643;SDS011;5370;50.132;8.626;2022-08-19T14:31:06;3.30;;;3.03;;
10643;SDS011;5370;50.132;8.626;2022-08-19T14:33:36;6.05;;;3.10;;
10643;SDS011;5370;50.132;8.626;2022-08-19T14:36:02;5.32;;;3.25;;
10643;SDS011;5370;50.132;8.626;2022-08-19T14:38:28;4.10;;;3.03;;
10643;SDS011;5370;50.132;8.626;2022-08-19T14:41:04;8.30;;;3.25;;
10643;SDS011;5370;50.132;8.626;2022-08-19T14:43:44;7.82;;;3.60;;
10643;SDS011;5370;50.132;8.626;2022-08-19T14:46:12;5.15;;;2.92;;
10643;SDS011;5370;50.132;8.626;2022-08-19T14:48:40;5.55;;;3.45;;
10643;SDS011;5370;50.132;8.626;2022-08-19T14:51:06;3.33;;;3.03;;
10643;SDS011;5370;50.132;8.626;2022-08-19T14:53:31;5.53;;;3.22;;
10643;SDS011;5370;50.132;8.626;2022-08-19T14:55:58;3.42;;;3.03;;
10643;SDS011;5370;50.132;8.626;2022-08-19T14:58:25;7.70;;;3.58;;
10643;SDS011;5370;50.132;8.626;2022-08-19T15:00:51;6.78;;;3.10;;
10643;SDS011;5370;50.132;8.626;2022-08-19T15:03:16;3.92;;;2.95;;
10643;SDS011;5370;50.132;8.626;2022-08-19T15:05:42;3.25;;;2.95;;
10643;SDS011;5370;50.132;8.626;2022-08-19T15:08:08;3.50;;;2.50;;